sensor_id;sensor_type;location;lat;lon;timestamp;temperature;humidity
27633;DHT22;15046;50.930;13.334;2022-10-16T00:00:37;15.20;99.90
27633;DHT22;15046;50.930;13.334;2022-10-16T00:03:04;15.20;99.90
27633;DHT22;15046;50.930;13.334;2022-10-16T00:05:30;15.20;99.90
27633;DHT22;15046;50.930;13.334;2022-10-16T00:07:56;15.20;99.90
27633;DHT22;15046;50.930;13.334;2022-10-16T00:10:22;15.30;99.90
27633;DHT22;15046;50.930;13.334;2022-10-16T00:12:48;15.20;99.90
27633;DHT22;15046;50.930;13.334;2022-10-16T00:15:14;15.20;99.90
27633;DHT22;15046;50.930;13.334;2022-10-16T00:17:40;15.30;99.90
27633;DHT22;15046;50.930;13.334;2022-10-16T00:20:06;15.30;99.90
27633;DHT22;15046;50.930;13.334;2022-10-16T00:22:32;15.20;99.90
27633;DHT22;15046;50.930;13.334;2022-10-16T00:24:58;15.20;99.90
27633;DHT22;15046;50.930;13.334;2022-10-16T00:27:24;15.30;99.90
27633;DHT22;15046;50.930;13.334;2022-10-16T00:29:51;15.20;99.90
27633;DHT22;15046;50.930;13.334;2022-10-16T00:32:17;15.20;99.90
27633;DHT22;15046;50.930;13.334;2022-10-16T00:34:43;15.20;99.90
27633;DHT22;15046;50.930;13.334;2022-10-16T00:37:09;15.20;99.90
27633;DHT22;15046;50.930;13.334;2022-10-16T00:39:35;15.20;99.90
27633;DHT22;15046;50.930;13.334;2022-10-16T00:42:01;15.10;99.90
27633;DHT22;15046;50.930;13.334;2022-10-16T00:44:46;15.20;99.90
27633;DHT22;15046;50.930;13.334;2022-10-16T00:47:18;15.20;99.90
27633;DHT22;15046;50.930;13.334;2022-10-16T00:49:46;15.20;99.90
27633;DHT22;15046;50.930;13.334;2022-10-16T00:52:13;15.20;99.90
27633;DHT22;15046;50.930;13.334;2022-10-16T00:54:40;15.20;99.90
27633;DHT22;15046;50.930;13.334;2022-10-16T00:57:06;15.20;99.90
27633;DHT22;15046;50.930;13.334;2022-10-16T00:59:37;15.20;99.90
27633;DHT22;15046;50.930;13.334;2022-10-16T01:02:06;15.20;99.90
27633;DHT22;15046;50.930;13.334;2022-10-16T01:04:37;15.20;99.90
27633;DHT22;15046;50.930;13.334;2022-10-16T01:07:15;15.30;99.90
27633;DHT22;15046;50.930;13.334;2022-10-16T01:12:50;15.40;99.90
27633;DHT22;15046;50.930;13.334;2022-10-16T01:15:36;15.50;99.90
27633;DHT22;15046;50.930;13.334;2022-10-16T01:20:58;15.50;99.90
27633;DHT22;15046;50.930;13.334;2022-10-16T01:28:28;15.60;99.90
27633;DHT22;15046;50.930;13.334;2022-10-16T01:30:58;15.70;99.90
27633;DHT22;15046;50.930;13.334;2022-10-16T01:33:35;15.70;99.90
27633;DHT22;15046;50.930;13.334;2022-10-16T01:36:15;15.70;99.90
27633;DHT22;15046;50.930;13.334;2022-10-16T01:38:43;15.70;99.90
27633;DHT22;15046;50.930;13.334;2022-10-16T01:41:17;15.70;99.90
27633;DHT22;15046;50.930;13.334;2022-10-16T01:43:56;15.70;99.90
27633;DHT22;15046;50.930;13.334;2022-10-16T01:46:26;15.80;99.90
27633;DHT22;15046;50.930;13.334;2022-10-16T01:48:54;15.70;99.90
27633;DHT22;15046;50.930;13.334;2022-10-16T01:51:22;15.80;99.90
27633;DHT22;15046;50.930;13.334;2022-10-16T01:53:52;15.80;99.90
27633;DHT22;15046;50.930;13.334;2022-10-16T01:56:20;15.80;99.90
27633;DHT22;15046;50.930;13.334;2022-10-16T01:59:11;15.80;99.90
27633;DHT22;15046;50.930;13.334;2022-10-16T02:01:40;15.80;99.90
27633;DHT22;15046;50.930;13.334;2022-10-16T02:04:21;15.80;99.90
27633;DHT22;15046;50.930;13.334;2022-10-16T02:06:49;15.80;99.90
27633;DHT22;15046;50.930;13.334;2022-10-16T02:09:15;15.80;99.90
27633;DHT22;15046;50.930;13.334;2022-10-16T02:11:43;15.80;99.90
27633;DHT22;15046;50.930;13.334;2022-10-16T02:14:09;15.80;99.90
27633;DHT22;15046;50.930;13.334;2022-10-16T02:16:41;15.80;99.90
27633;DHT22;15046;50.930;13.334;2022-10-16T02:19:07;15.80;99.90
27633;DHT22;15046;50.930;13.334;2022-10-16T02:21:54;15.80;99.90
27633;DHT22;15046;50.930;13.334;2022-10-16T02:24:27;15.80;99.90
27633;DHT22;15046;50.930;13.334;2022-10-16T02:27:11;15.60;99.90
27633;DHT22;15046;50.930;13.334;2022-10-16T02:29:46;15.50;99.90
27633;DHT22;15046;50.930;13.334;2022-10-16T02:32:17;15.40;99.90
27633;DHT22;15046;50.930;13.334;2022-10-16T02:34:46;15.30;99.90
27633;DHT22;15046;50.930;13.334;2022-10-16T02:37:13;15.20;99.90
27633;DHT22;15046;50.930;13.334;2022-10-16T02:39:40;15.20;99.90
27633;DHT22;15046;50.930;13.334;2022-10-16T02:42:12;15.10;99.90
27633;DHT22;15046;50.930;13.334;2022-10-16T02:44:38;15.10;99.90
27633;DHT22;15046;50.930;13.334;2022-10-16T02:47:04;15.10;99.90
27633;DHT22;15046;50.930;13.334;2022-10-16T02:49:30;15.10;99.90
27633;DHT22;15046;50.930;13.334;2022-10-16T02:51:56;15.10;99.90
27633;DHT22;15046;50.930;13.334;2022-10-16T02:54:21;15.20;99.90
27633;DHT22;15046;50.930;13.334;2022-10-16T02:56:47;15.20;99.90
27633;DHT22;15046;50.930;13.334;2022-10-16T02:59:13;15.20;99.90
27633;DHT22;15046;50.930;13.334;2022-10-16T03:01:39;15.20;99.90
27633;DHT22;15046;50.930;13.334;2022-10-16T03:04:04;15.20;99.90
27633;DHT22;15046;50.930;13.334;2022-10-16T03:06:30;15.20;99.90
27633;DHT22;15046;50.930;13.334;2022-10-16T03:08:56;15.20;99.90
27633;DHT22;15046;50.930;13.334;2022-10-16T03:11:22;15.20;99.90
27633;DHT22;15046;50.930;13.334;2022-10-16T03:13:47;15.20;99.90
27633;DHT22;15046;50.930;13.334;2022-10-16T03:16:13;15.20;99.90
27633;DHT22;15046;50.930;13.334;2022-10-16T03:18:39;15.30;99.90
27633;DHT22;15046;50.930;13.334;2022-10-16T03:21:05;15.30;99.90
27633;DHT22;15046;50.930;13.334;2022-10-16T03:23:31;15.30;99.90
27633;DHT22;15046;50.930;13.334;2022-10-16T03:25:56;15.30;99.90
27633;DHT22;15046;50.930;13.334;2022-10-16T03:28:22;15.30;99.90
27633;DHT22;15046;50.930;13.334;2022-10-16T03:30:48;15.30;99.90
27633;DHT22;15046;50.930;13.334;2022-10-16T03:33:14;15.30;99.90
27633;DHT22;15046;50.930;13.334;2022-10-16T03:35:39;15.30;99.90
27633;DHT22;15046;50.930;13.334;2022-10-16T03:38:05;15.30;99.90
27633;DHT22;15046;50.930;13.334;2022-10-16T03:40:31;15.30;99.90
27633;DHT22;15046;50.930;13.334;2022-10-16T03:42:58;15.30;99.90
27633;DHT22;15046;50.930;13.334;2022-10-16T03:45:24;15.30;99.90
27633;DHT22;15046;50.930;13.334;2022-10-16T03:47:50;15.30;99.90
27633;DHT22;15046;50.930;13.334;2022-10-16T03:50:16;15.20;99.90
27633;DHT22;15046;50.930;13.334;2022-10-16T03:52:41;15.20;99.90
27633;DHT22;15046;50.930;13.334;2022-10-16T03:55:07;15.20;99.90
27633;DHT22;15046;50.930;13.334;2022-10-16T03:57:33;15.20;99.90
27633;DHT22;15046;50.930;13.334;2022-10-16T03:59:59;15.20;99.90
27633;DHT22;15046;50.930;13.334;2022-10-16T04:02:25;15.10;99.90
27633;DHT22;15046;50.930;13.334;2022-10-16T04:04:51;15.10;99.90
27633;DHT22;15046;50.930;13.334;2022-10-16T04:07:17;15.00;99.90
27633;DHT22;15046;50.930;13.334;2022-10-16T04:09:43;15.00;99.90
27633;DHT22;15046;50.930;13.334;2022-10-16T04:12:08;15.00;99.90
27633;DHT22;15046;50.930;13.334;2022-10-16T04:14:34;15.00;99.90
27633;DHT22;15046;50.930;13.334;2022-10-16T04:17:00;15.00;99.90
27633;DHT22;15046;50.930;13.334;2022-10-16T04:19:26;15.00;99.90
27633;DHT22;15046;50.930;13.334;2022-10-16T04:21:51;15.00;99.90
27633;DHT22;15046;50.930;13.334;2022-10-16T04:24:17;15.00;99.90
27633;DHT22;15046;50.930;13.334;2022-10-16T04:26:43;15.00;99.90
27633;DHT22;15046;50.930;13.334;2022-10-16T04:29:09;15.00;99.90
27633;DHT22;15046;50.930;13.334;2022-10-16T04:31:35;15.00;99.90
27633;DHT22;15046;50.930;13.334;2022-10-16T04:34:01;15.00;99.90
27633;DHT22;15046;50.930;13.334;2022-10-16T04:36:26;15.00;99.90
27633;DHT22;15046;50.930;13.334;2022-10-16T04:38:52;15.00;99.90
27633;DHT22;15046;50.930;13.334;2022-10-16T04:41:18;15.00;99.90
27633;DHT22;15046;50.930;13.334;2022-10-16T04:43:44;15.00;99.90
27633;DHT22;15046;50.930;13.334;2022-10-16T04:46:09;15.00;99.90
27633;DHT22;15046;50.930;13.334;2022-10-16T04:48:35;15.00;99.90
27633;DHT22;15046;50.930;13.334;2022-10-16T04:51:01;15.00;99.90
27633;DHT22;15046;50.930;13.334;2022-10-16T04:53:27;15.00;99.90
27633;DHT22;15046;50.930;13.334;2022-10-16T04:55:53;14.90;99.90
27633;DHT22;15046;50.930;13.334;2022-10-16T04:58:19;14.90;99.90
27633;DHT22;15046;50.930;13.334;2022-10-16T05:00:45;14.90;99.90
27633;DHT22;15046;50.930;13.334;2022-10-16T05:03:12;14.90;99.90
27633;DHT22;15046;50.930;13.334;2022-10-16T05:05:45;14.90;99.90
27633;DHT22;15046;50.930;13.334;2022-10-16T05:08:15;14.90;99.90
27633;DHT22;15046;50.930;13.334;2022-10-16T05:10:43;14.90;99.90
27633;DHT22;15046;50.930;13.334;2022-10-16T05:13:09;14.90;99.90
27633;DHT22;15046;50.930;13.334;2022-10-16T05:15:35;14.90;99.90
27633;DHT22;15046;50.930;13.334;2022-10-16T05:18:01;15.00;99.90
27633;DHT22;15046;50.930;13.334;2022-10-16T05:20:27;15.00;99.90
27633;DHT22;15046;50.930;13.334;2022-10-16T05:22:52;15.00;99.90
27633;DHT22;15046;50.930;13.334;2022-10-16T05:25:18;14.90;99.90
27633;DHT22;15046;50.930;13.334;2022-10-16T05:27:47;14.90;99.90
27633;DHT22;15046;50.930;13.334;2022-10-16T05:30:14;14.90;99.90
27633;DHT22;15046;50.930;13.334;2022-10-16T05:32:40;14.90;99.90
27633;DHT22;15046;50.930;13.334;2022-10-16T05:35:06;14.90;99.90
27633;DHT22;15046;50.930;13.334;2022-10-16T05:37:33;14.90;99.90
27633;DHT22;15046;50.930;13.334;2022-10-16T05:39:59;14.90;99.90
27633;DHT22;15046;50.930;13.334;2022-10-16T05:42:25;14.90;99.90
27633;DHT22;15046;50.930;13.334;2022-10-16T05:44:50;14.90;99.90
27633;DHT22;15046;50.930;13.334;2022-10-16T05:47:16;14.80;99.90
27633;DHT22;15046;50.930;13.334;2022-10-16T05:49:42;14.80;99.90
27633;DHT22;15046;50.930;13.334;2022-10-16T05:52:08;14.90;99.90
27633;DHT22;15046;50.930;13.334;2022-10-16T05:54:33;14.90;99.90
27633;DHT22;15046;50.930;13.334;2022-10-16T05:56:59;15.00;99.90
27633;DHT22;15046;50.930;13.334;2022-10-16T05:59:25;15.00;99.90
27633;DHT22;15046;50.930;13.334;2022-10-16T06:01:51;15.10;99.90
27633;DHT22;15046;50.930;13.334;2022-10-16T06:04:17;15.20;99.90
27633;DHT22;15046;50.930;13.334;2022-10-16T06:06:43;15.20;99.90
27633;DHT22;15046;50.930;13.334;2022-10-16T06:09:09;15.30;99.90
27633;DHT22;15046;50.930;13.334;2022-10-16T06:11:36;15.30;99.90
27633;DHT22;15046;50.930;13.334;2022-10-16T06:14:02;15.40;99.90
27633;DHT22;15046;50.930;13.334;2022-10-16T06:16:33;15.40;99.90
27633;DHT22;15046;50.930;13.334;2022-10-16T06:18:59;15.50;99.90
27633;DHT22;15046;50.930;13.334;2022-10-16T06:21:27;15.60;99.90
27633;DHT22;15046;50.930;13.334;2022-10-16T06:23:54;15.70;99.90
27633;DHT22;15046;50.930;13.334;2022-10-16T06:26:22;15.80;99.90
27633;DHT22;15046;50.930;13.334;2022-10-16T06:28:48;15.90;99.90
27633;DHT22;15046;50.930;13.334;2022-10-16T06:31:15;15.90;99.90
27633;DHT22;15046;50.930;13.334;2022-10-16T06:33:41;16.00;99.90
27633;DHT22;15046;50.930;13.334;2022-10-16T06:36:09;16.00;99.90
27633;DHT22;15046;50.930;13.334;2022-10-16T06:38:36;16.00;99.90
27633;DHT22;15046;50.930;13.334;2022-10-16T06:41:02;16.00;99.90
27633;DHT22;15046;50.930;13.334;2022-10-16T06:43:31;16.00;99.90
27633;DHT22;15046;50.930;13.334;2022-10-16T06:45:59;16.00;99.90
27633;DHT22;15046;50.930;13.334;2022-10-16T06:48:25;15.90;99.90
27633;DHT22;15046;50.930;13.334;2022-10-16T06:51:02;15.80;99.90
27633;DHT22;15046;50.930;13.334;2022-10-16T06:53:32;15.80;99.90
27633;DHT22;15046;50.930;13.334;2022-10-16T06:55:58;15.70;99.90
27633;DHT22;15046;50.930;13.334;2022-10-16T06:58:31;15.70;99.90
27633;DHT22;15046;50.930;13.334;2022-10-16T07:00:57;15.80;99.90
27633;DHT22;15046;50.930;13.334;2022-10-16T07:03:23;15.80;99.90
27633;DHT22;15046;50.930;13.334;2022-10-16T07:05:48;15.70;99.90
27633;DHT22;15046;50.930;13.334;2022-10-16T07:08:14;15.80;99.90
27633;DHT22;15046;50.930;13.334;2022-10-16T07:10:40;15.70;99.90
27633;DHT22;15046;50.930;13.334;2022-10-16T07:13:06;15.80;99.90
27633;DHT22;15046;50.930;13.334;2022-10-16T07:15:33;15.90;99.90
27633;DHT22;15046;50.930;13.334;2022-10-16T07:17:59;16.00;99.90
27633;DHT22;15046;50.930;13.334;2022-10-16T07:20:25;16.00;99.90
27633;DHT22;15046;50.930;13.334;2022-10-16T07:22:52;16.10;99.90
27633;DHT22;15046;50.930;13.334;2022-10-16T07:25:17;16.20;99.90
27633;DHT22;15046;50.930;13.334;2022-10-16T07:27:43;16.30;99.90
27633;DHT22;15046;50.930;13.334;2022-10-16T07:30:09;16.40;99.90
27633;DHT22;15046;50.930;13.334;2022-10-16T07:32:35;16.60;99.90
27633;DHT22;15046;50.930;13.334;2022-10-16T07:35:01;16.80;99.90
27633;DHT22;15046;50.930;13.334;2022-10-16T07:37:27;16.90;99.90
27633;DHT22;15046;50.930;13.334;2022-10-16T07:39:52;16.90;99.90
27633;DHT22;15046;50.930;13.334;2022-10-16T07:42:18;17.00;99.90
27633;DHT22;15046;50.930;13.334;2022-10-16T07:44:45;17.10;99.90
27633;DHT22;15046;50.930;13.334;2022-10-16T07:47:11;17.10;99.90
27633;DHT22;15046;50.930;13.334;2022-10-16T07:49:37;17.10;99.90
27633;DHT22;15046;50.930;13.334;2022-10-16T07:52:03;17.20;99.90
27633;DHT22;15046;50.930;13.334;2022-10-16T07:54:29;17.20;99.90
27633;DHT22;15046;50.930;13.334;2022-10-16T07:56:54;17.20;99.90
27633;DHT22;15046;50.930;13.334;2022-10-16T07:59:20;17.30;99.90
27633;DHT22;15046;50.930;13.334;2022-10-16T08:01:46;17.40;99.90
27633;DHT22;15046;50.930;13.334;2022-10-16T08:04:12;17.50;99.90
27633;DHT22;15046;50.930;13.334;2022-10-16T08:06:39;17.70;99.90
27633;DHT22;15046;50.930;13.334;2022-10-16T08:09:07;17.70;99.90
27633;DHT22;15046;50.930;13.334;2022-10-16T08:11:33;17.80;99.90
27633;DHT22;15046;50.930;13.334;2022-10-16T08:13:59;17.80;99.90
27633;DHT22;15046;50.930;13.334;2022-10-16T08:16:25;17.90;99.90
27633;DHT22;15046;50.930;13.334;2022-10-16T08:18:50;17.90;99.90
27633;DHT22;15046;50.930;13.334;2022-10-16T08:21:19;17.90;99.90
27633;DHT22;15046;50.930;13.334;2022-10-16T08:23:46;17.90;99.90
27633;DHT22;15046;50.930;13.334;2022-10-16T08:26:12;17.90;99.90
27633;DHT22;15046;50.930;13.334;2022-10-16T08:28:38;18.00;99.90
27633;DHT22;15046;50.930;13.334;2022-10-16T08:33:33;18.10;99.90
27633;DHT22;15046;50.930;13.334;2022-10-16T08:36:01;18.20;99.90
27633;DHT22;15046;50.930;13.334;2022-10-16T08:38:26;18.20;99.90
27633;DHT22;15046;50.930;13.334;2022-10-16T08:40:55;18.20;99.90
27633;DHT22;15046;50.930;13.334;2022-10-16T08:48:54;18.30;99.90
27633;DHT22;15046;50.930;13.334;2022-10-16T08:51:29;18.40;99.90
27633;DHT22;15046;50.930;13.334;2022-10-16T08:54:01;18.50;99.90
27633;DHT22;15046;50.930;13.334;2022-10-16T08:56:28;18.40;99.90
27633;DHT22;15046;50.930;13.334;2022-10-16T08:58:54;18.30;99.90
27633;DHT22;15046;50.930;13.334;2022-10-16T09:01:25;18.40;99.90
27633;DHT22;15046;50.930;13.334;2022-10-16T09:06:55;19.10;99.90
27633;DHT22;15046;50.930;13.334;2022-10-16T09:09:41;19.40;99.90
27633;DHT22;15046;50.930;13.334;2022-10-16T09:12:20;19.60;99.90
27633;DHT22;15046;50.930;13.334;2022-10-16T09:17:23;19.70;99.90
27633;DHT22;15046;50.930;13.334;2022-10-16T09:20:34;19.60;99.90
27633;DHT22;15046;50.930;13.334;2022-10-16T09:25:32;19.50;99.90
27633;DHT22;15046;50.930;13.334;2022-10-16T09:27:58;19.60;99.90
27633;DHT22;15046;50.930;13.334;2022-10-16T09:30:28;19.70;99.90
27633;DHT22;15046;50.930;13.334;2022-10-16T09:32:56;20.00;99.90
27633;DHT22;15046;50.930;13.334;2022-10-16T09:35:31;20.20;99.90
27633;DHT22;15046;50.930;13.334;2022-10-16T09:37:57;20.60;99.90
27633;DHT22;15046;50.930;13.334;2022-10-16T09:43:15;21.30;99.90
27633;DHT22;15046;50.930;13.334;2022-10-16T09:45:53;21.60;99.90
27633;DHT22;15046;50.930;13.334;2022-10-16T09:48:20;21.60;99.90
27633;DHT22;15046;50.930;13.334;2022-10-16T09:50:56;22.00;99.90
27633;DHT22;15046;50.930;13.334;2022-10-16T09:53:23;22.10;99.90
27633;DHT22;15046;50.930;13.334;2022-10-16T09:55:49;21.90;99.90
27633;DHT22;15046;50.930;13.334;2022-10-16T09:58:16;21.60;99.90
27633;DHT22;15046;50.930;13.334;2022-10-16T10:00:42;21.50;99.90
27633;DHT22;15046;50.930;13.334;2022-10-16T10:05:57;21.40;99.90
27633;DHT22;15046;50.930;13.334;2022-10-16T10:08:22;22.00;99.90
27633;DHT22;15046;50.930;13.334;2022-10-16T10:10:49;23.60;99.90
27633;DHT22;15046;50.930;13.334;2022-10-16T10:13:24;24.50;99.90
27633;DHT22;15046;50.930;13.334;2022-10-16T10:15:53;24.30;99.90
27633;DHT22;15046;50.930;13.334;2022-10-16T10:18:21;23.80;99.90
27633;DHT22;15046;50.930;13.334;2022-10-16T10:20:58;23.10;99.90
27633;DHT22;15046;50.930;13.334;2022-10-16T10:23:27;22.50;99.90
27633;DHT22;15046;50.930;13.334;2022-10-16T10:28:39;21.90;99.90
27633;DHT22;15046;50.930;13.334;2022-10-16T10:31:20;22.50;99.90
27633;DHT22;15046;50.930;13.334;2022-10-16T10:38:59;24.20;99.90
27633;DHT22;15046;50.930;13.334;2022-10-16T10:47:11;23.90;99.90
27633;DHT22;15046;50.930;13.334;2022-10-16T10:52:31;23.00;99.90
27633;DHT22;15046;50.930;13.334;2022-10-16T11:03:31;23.80;99.30
27633;DHT22;15046;50.930;13.334;2022-10-16T11:06:14;23.50;99.40
27633;DHT22;15046;50.930;13.334;2022-10-16T11:08:52;23.10;99.60
27633;DHT22;15046;50.930;13.334;2022-10-16T11:11:41;22.70;99.80
27633;DHT22;15046;50.930;13.334;2022-10-16T11:16:47;22.50;99.90
27633;DHT22;15046;50.930;13.334;2022-10-16T11:19:38;22.30;99.90
27633;DHT22;15046;50.930;13.334;2022-10-16T11:22:16;22.40;99.90
27633;DHT22;15046;50.930;13.334;2022-10-16T11:25:11;22.30;99.90
27633;DHT22;15046;50.930;13.334;2022-10-16T11:27:45;22.40;99.90
27633;DHT22;15046;50.930;13.334;2022-10-16T11:30:25;22.40;99.90
27633;DHT22;15046;50.930;13.334;2022-10-16T11:35:57;22.60;99.90
27633;DHT22;15046;50.930;13.334;2022-10-16T11:38:31;22.70;99.70
27633;DHT22;15046;50.930;13.334;2022-10-16T11:41:09;22.80;99.50
27633;DHT22;15046;50.930;13.334;2022-10-16T11:43:42;23.30;99.30
27633;DHT22;15046;50.930;13.334;2022-10-16T11:46:16;24.00;98.30
27633;DHT22;15046;50.930;13.334;2022-10-16T11:48:50;24.20;97.90
27633;DHT22;15046;50.930;13.334;2022-10-16T11:56:25;26.00;95.10
27633;DHT22;15046;50.930;13.334;2022-10-16T11:59:08;25.60;94.80
27633;DHT22;15046;50.930;13.334;2022-10-16T12:04:50;25.00;95.00
27633;DHT22;15046;50.930;13.334;2022-10-16T12:07:29;24.80;95.00
27633;DHT22;15046;50.930;13.334;2022-10-16T12:09:57;24.50;95.00
27633;DHT22;15046;50.930;13.334;2022-10-16T12:12:28;24.20;95.20
27633;DHT22;15046;50.930;13.334;2022-10-16T12:17:36;23.70;95.50
27633;DHT22;15046;50.930;13.334;2022-10-16T12:22:47;23.80;95.70
27633;DHT22;15046;50.930;13.334;2022-10-16T12:25:22;24.90;95.80
27633;DHT22;15046;50.930;13.334;2022-10-16T12:30:42;27.80;92.60
27633;DHT22;15046;50.930;13.334;2022-10-16T12:33:25;28.00;91.40
27633;DHT22;15046;50.930;13.334;2022-10-16T12:35:52;27.50;91.00
27633;DHT22;15046;50.930;13.334;2022-10-16T12:38:21;28.00;90.50
27633;DHT22;15046;50.930;13.334;2022-10-16T12:41:05;28.50;89.10
27633;DHT22;15046;50.930;13.334;2022-10-16T12:43:47;29.40;88.40
27633;DHT22;15046;50.930;13.334;2022-10-16T12:48:42;30.80;84.20
27633;DHT22;15046;50.930;13.334;2022-10-16T12:54:11;30.50;79.50
27633;DHT22;15046;50.930;13.334;2022-10-16T13:05:00;26.50;82.20
27633;DHT22;15046;50.930;13.334;2022-10-16T13:07:40;25.80;83.50
27633;DHT22;15046;50.930;13.334;2022-10-16T13:11:04;25.70;85.30
27633;DHT22;15046;50.930;13.334;2022-10-16T13:21:14;28.20;79.20
27633;DHT22;15046;50.930;13.334;2022-10-16T13:23:48;28.30;79.10
27633;DHT22;15046;50.930;13.334;2022-10-16T13:26:49;28.00;78.60
27633;DHT22;15046;50.930;13.334;2022-10-16T13:29:19;27.10;79.10
27633;DHT22;15046;50.930;13.334;2022-10-16T13:31:45;26.30;80.60
27633;DHT22;15046;50.930;13.334;2022-10-16T13:34:21;26.10;82.10
27633;DHT22;15046;50.930;13.334;2022-10-16T13:36:52;26.30;81.10
27633;DHT22;15046;50.930;13.334;2022-10-16T13:39:29;26.00;81.20
27633;DHT22;15046;50.930;13.334;2022-10-16T13:44:27;24.80;82.90
27633;DHT22;15046;50.930;13.334;2022-10-16T13:47:01;24.30;84.20
27633;DHT22;15046;50.930;13.334;2022-10-16T13:49:27;24.00;85.00
27633;DHT22;15046;50.930;13.334;2022-10-16T13:51:58;23.80;85.60
27633;DHT22;15046;50.930;13.334;2022-10-16T13:54:26;23.60;86.20
27633;DHT22;15046;50.930;13.334;2022-10-16T13:56:54;23.50;86.70
27633;DHT22;15046;50.930;13.334;2022-10-16T13:59:33;23.30;87.10
27633;DHT22;15046;50.930;13.334;2022-10-16T14:02:04;23.20;87.60
27633;DHT22;15046;50.930;13.334;2022-10-16T14:04:32;23.20;88.10
27633;DHT22;15046;50.930;13.334;2022-10-16T14:06:59;23.10;88.20
27633;DHT22;15046;50.930;13.334;2022-10-16T14:09:27;23.00;88.80
27633;DHT22;15046;50.930;13.334;2022-10-16T14:12:14;22.90;89.30
27633;DHT22;15046;50.930;13.334;2022-10-16T14:14:46;22.80;89.40
27633;DHT22;15046;50.930;13.334;2022-10-16T14:17:33;22.70;89.50
27633;DHT22;15046;50.930;13.334;2022-10-16T14:20:04;22.60;89.60
27633;DHT22;15046;50.930;13.334;2022-10-16T14:22:36;22.40;89.60
27633;DHT22;15046;50.930;13.334;2022-10-16T14:30:35;22.10;90.20
27633;DHT22;15046;50.930;13.334;2022-10-16T14:33:05;22.00;90.40
27633;DHT22;15046;50.930;13.334;2022-10-16T14:35:34;22.00;90.60
27633;DHT22;15046;50.930;13.334;2022-10-16T14:38:02;22.10;90.70
27633;DHT22;15046;50.930;13.334;2022-10-16T14:40:35;22.20;90.70
27633;DHT22;15046;50.930;13.334;2022-10-16T14:43:03;22.30;90.80
27633;DHT22;15046;50.930;13.334;2022-10-16T14:45:32;22.50;90.80
27633;DHT22;15046;50.930;13.334;2022-10-16T14:48:06;22.70;90.70
27633;DHT22;15046;50.930;13.334;2022-10-16T14:50:40;22.90;90.60
27633;DHT22;15046;50.930;13.334;2022-10-16T14:53:12;22.90;90.50
27633;DHT22;15046;50.930;13.334;2022-10-16T14:55:39;22.90;90.50
27633;DHT22;15046;50.930;13.334;2022-10-16T14:58:09;22.80;90.50
27633;DHT22;15046;50.930;13.334;2022-10-16T15:00:38;22.70;90.90
27633;DHT22;15046;50.930;13.334;2022-10-16T15:03:04;22.70;90.70
27633;DHT22;15046;50.930;13.334;2022-10-16T15:05:30;22.60;90.80
27633;DHT22;15046;50.930;13.334;2022-10-16T15:07:57;22.50;91.00
27633;DHT22;15046;50.930;13.334;2022-10-16T15:10:25;22.40;91.10
27633;DHT22;15046;50.930;13.334;2022-10-16T15:12:52;22.20;91.20
27633;DHT22;15046;50.930;13.334;2022-10-16T15:15:40;22.00;91.40
27633;DHT22;15046;50.930;13.334;2022-10-16T15:18:07;21.90;91.60
27633;DHT22;15046;50.930;13.334;2022-10-16T15:20:34;21.80;91.70
27633;DHT22;15046;50.930;13.334;2022-10-16T15:23:15;21.70;91.90
27633;DHT22;15046;50.930;13.334;2022-10-16T15:25:43;21.60;92.10
27633;DHT22;15046;50.930;13.334;2022-10-16T15:28:10;21.40;92.20
27633;DHT22;15046;50.930;13.334;2022-10-16T15:30:37;21.30;92.40
27633;DHT22;15046;50.930;13.334;2022-10-16T15:33:04;21.30;92.70
27633;DHT22;15046;50.930;13.334;2022-10-16T15:35:31;21.30;92.90
27633;DHT22;15046;50.930;13.334;2022-10-16T15:37:57;21.20;93.10
27633;DHT22;15046;50.930;13.334;2022-10-16T15:40:23;21.20;93.30
27633;DHT22;15046;50.930;13.334;2022-10-16T15:42:49;21.10;93.40
27633;DHT22;15046;50.930;13.334;2022-10-16T15:45:16;21.00;93.60
27633;DHT22;15046;50.930;13.334;2022-10-16T15:47:42;20.90;93.70
27633;DHT22;15046;50.930;13.334;2022-10-16T15:50:12;20.80;93.90
27633;DHT22;15046;50.930;13.334;2022-10-16T15:52:40;20.70;94.20
27633;DHT22;15046;50.930;13.334;2022-10-16T15:55:08;20.50;94.30
27633;DHT22;15046;50.930;13.334;2022-10-16T15:57:34;20.40;94.80
27633;DHT22;15046;50.930;13.334;2022-10-16T16:00:00;20.30;94.70
27633;DHT22;15046;50.930;13.334;2022-10-16T16:02:26;20.10;94.90
27633;DHT22;15046;50.930;13.334;2022-10-16T16:04:52;20.00;95.00
27633;DHT22;15046;50.930;13.334;2022-10-16T16:07:18;19.90;95.10
27633;DHT22;15046;50.930;13.334;2022-10-16T16:09:44;19.90;95.20
27633;DHT22;15046;50.930;13.334;2022-10-16T16:12:11;19.80;95.30
27633;DHT22;15046;50.930;13.334;2022-10-16T16:14:37;19.60;95.40
27633;DHT22;15046;50.930;13.334;2022-10-16T16:17:03;19.40;95.60
27633;DHT22;15046;50.930;13.334;2022-10-16T16:19:29;19.30;95.70
27633;DHT22;15046;50.930;13.334;2022-10-16T16:21:54;19.30;95.90
27633;DHT22;15046;50.930;13.334;2022-10-16T16:24:20;19.10;96.00
27633;DHT22;15046;50.930;13.334;2022-10-16T16:26:46;19.10;96.20
27633;DHT22;15046;50.930;13.334;2022-10-16T16:29:13;19.00;96.30
27633;DHT22;15046;50.930;13.334;2022-10-16T16:31:41;18.90;96.40
27633;DHT22;15046;50.930;13.334;2022-10-16T16:34:07;18.90;96.50
27633;DHT22;15046;50.930;13.334;2022-10-16T16:36:33;18.80;96.60
27633;DHT22;15046;50.930;13.334;2022-10-16T16:38:59;18.70;96.70
27633;DHT22;15046;50.930;13.334;2022-10-16T16:41:27;18.60;96.80
27633;DHT22;15046;50.930;13.334;2022-10-16T16:43:55;18.50;97.00
27633;DHT22;15046;50.930;13.334;2022-10-16T16:46:21;18.40;97.10
27633;DHT22;15046;50.930;13.334;2022-10-16T16:48:47;18.30;97.20
27633;DHT22;15046;50.930;13.334;2022-10-16T16:51:16;18.30;97.40
27633;DHT22;15046;50.930;13.334;2022-10-16T16:53:54;18.20;97.50
27633;DHT22;15046;50.930;13.334;2022-10-16T16:56:21;18.10;97.60
27633;DHT22;15046;50.930;13.334;2022-10-16T16:58:52;18.10;97.70
27633;DHT22;15046;50.930;13.334;2022-10-16T17:01:18;18.00;97.80
27633;DHT22;15046;50.930;13.334;2022-10-16T17:03:45;18.00;97.90
27633;DHT22;15046;50.930;13.334;2022-10-16T17:06:12;18.00;97.90
27633;DHT22;15046;50.930;13.334;2022-10-16T17:08:39;17.90;97.90
27633;DHT22;15046;50.930;13.334;2022-10-16T17:11:05;17.90;97.90
27633;DHT22;15046;50.930;13.334;2022-10-16T17:13:36;17.80;98.00
27633;DHT22;15046;50.930;13.334;2022-10-16T17:16:04;17.80;97.90